Terminal Aerodrome Forecast
Issued by NWS Sterling, VA

Home | Current Version | Previous Version | Text Only | Print | Product List | Glossary On
Versions: 1 2 3 4 5 6 7 8 9 10 11 12 13 14 15 16 17 18 19 20 21 22 23 24 25
418
FTUS41 KLWX 310535
TAFCHO
TAF
KCHO 310535Z 3106/0106 00000KT 1/2SM FG VV001
     FM311000 00000KT 2SM BR BKN003
     FM311200 00000KT 5SM BR BKN090
     FM311300 00000KT P6SM BKN090
     FM311800 VRB03KT P6SM VCTS SCT050CB BKN080
     FM312200 21005KT P6SM BKN060
     FM010200 00000KT P6SM BKN080=

USA.gov is the U.S. government's official web portal to all federal, state and local government web resources and services.